Time;durP1;ratioP1;P1;durP2;ratioP2;P2;SDS_P1;SDS_P2;PMS_P1;PMS_P2;Temp;Humidity;BMP_temperature;BMP_pressure;BME280_temperature;BME280_humidity;BME280_pressure;Samples;Min_cycle;Max_cycle;Signal;HPM_P1;HPM_P2
2022/11/29 00:00:59;;;;;;;199.05;25.73;;;7.70;99.90;;;;;;5027110;28;20042;-54
2022/11/29 00:03:26;;;;;;;192.93;25.35;;;7.70;99.90;;;;;;5027120;28;20050;-54
2022/11/29 00:05:52;;;;;;;263.95;30.73;;;8.00;99.90;;;;;;5026900;28;20092;-55
2022/11/29 00:08:19;;;;;;;195.75;24.48;;;7.70;99.90;;;;;;5027615;28;20061;-55
2022/11/29 00:10:44;;;;;;;244.88;28.98;;;7.70;99.90;;;;;;5027105;28;20081;-54
2022/11/29 00:13:10;;;;;;;392.88;34.10;;;7.70;99.90;;;;;;5026496;28;20053;-54
2022/11/29 00:15:37;;;;;;;360.90;32.85;;;7.80;99.90;;;;;;5026648;28;20049;-54
2022/11/29 00:18:04;;;;;;;239.27;29.05;;;7.80;99.90;;;;;;5026160;28;20076;-54
2022/11/29 00:20:30;;;;;;;251.23;28.92;;;7.90;99.90;;;;;;5027567;28;20041;-54
2022/11/29 00:22:56;;;;;;;279.15;28.38;;;8.70;99.90;;;;;;5027233;28;20045;-54
2022/11/29 00:25:22;;;;;;;273.38;30.20;;;7.60;99.90;;;;;;5027442;28;20372;-54
2022/11/29 00:27:49;;;;;;;192.55;26.05;;;7.80;99.90;;;;;;5025320;28;20041;-54
2022/11/29 00:30:15;;;;;;;321.10;29.85;;;7.80;99.90;;;;;;5026784;28;20088;-54
2022/11/29 00:32:40;;;;;;;289.30;32.58;;;7.80;99.90;;;;;;5026532;28;20045;-54
2022/11/29 00:35:06;;;;;;;276.92;29.20;;;8.70;99.90;;;;;;5026908;28;20080;-54
2022/11/29 00:37:32;;;;;;;273.33;29.42;;;7.80;99.90;;;;;;5026654;28;20122;-54
2022/11/29 00:39:58;;;;;;;255.13;29.95;;;7.50;99.90;;;;;;5026320;28;20049;-54
2022/11/29 00:42:23;;;;;;;274.98;31.63;;;7.80;99.90;;;;;;5025015;28;20163;-55
2022/11/29 00:44:49;;;;;;;268.42;29.70;;;8.50;99.90;;;;;;5025959;28;20536;-55
2022/11/29 00:47:15;;;;;;;213.75;27.77;;;8.60;99.90;;;;;;5024965;28;20059;-54
2022/11/29 00:49:40;;;;;;;235.88;28.55;;;8.50;99.90;;;;;;5025119;28;20127;-55
2022/11/29 00:52:06;;;;;;;229.35;27.33;;;7.60;99.90;;;;;;5026397;28;20037;-54
2022/11/29 00:54:32;;;;;;;262.65;30.90;;;7.80;99.90;;;;;;5026459;28;20486;-54
2022/11/29 00:56:57;;;;;;;239.75;29.77;;;7.80;99.90;;;;;;5025650;28;20052;-54
2022/11/29 00:59:23;;;;;;;212.70;28.48;;;7.80;99.90;;;;;;5026110;28;20107;-55
2022/11/29 01:01:49;;;;;;;262.10;30.27;;;7.80;99.90;;;;;;5024913;28;20099;-55
2022/11/29 01:04:14;;;;;;;241.63;28.52;;;7.70;99.90;;;;;;5025007;28;20840;-54
2022/11/29 01:06:40;;;;;;;236.95;29.38;;;8.60;99.90;;;;;;5026577;28;20395;-55
2022/11/29 01:09:06;;;;;;;256.60;30.13;;;7.80;99.90;;;;;;5025025;28;20042;-55
2022/11/29 01:11:32;;;;;;;227.25;28.00;;;7.70;99.90;;;;;;5025080;28;20059;-54
2022/11/29 01:14:00;;;;;;;223.13;27.17;;;7.40;99.90;;;;;;5024779;28;20470;-54
2022/11/29 01:16:27;;;;;;;306.15;32.95;;;7.70;99.90;;;;;;5026381;28;20053;-55
2022/11/29 01:18:53;;;;;;;270.17;29.75;;;7.60;99.90;;;;;;5026138;28;20069;-55
2022/11/29 01:21:21;;;;;;;249.40;29.45;;;7.70;99.90;;;;;;5025034;28;20107;-54
2022/11/29 01:23:49;;;;;;;245.15;28.83;;;8.10;99.90;;;;;;5024892;28;20050;-55
2022/11/29 01:26:21;;;;;;;282.67;30.05;;;8.40;99.90;;;;;;5041638;28;20526;-54
2022/11/29 01:28:49;;;;;;;276.80;31.08;;;7.70;99.90;;;;;;5026274;28;20095;-54
2022/11/29 01:31:21;;;;;;;264.17;30.27;;;8.60;99.90;;;;;;5024762;28;20084;-55
2022/11/29 01:33:47;;;;;;;235.35;29.55;;;7.80;99.90;;;;;;5026094;28;20081;-55
2022/11/29 01:36:14;;;;;;;241.68;29.92;;;7.70;99.90;;;;;;5025811;28;20084;-55
2022/11/29 01:38:41;;;;;;;194.32;25.20;;;7.80;99.90;;;;;;5024524;28;20659;-54
2022/11/29 01:41:16;;;;;;;226.90;28.30;;;7.70;99.90;;;;;;5024516;28;20123;-55
2022/11/29 01:43:56;;;;;;;274.65;29.40;;;7.70;99.90;;;;;;5025983;28;20072;-54
2022/11/29 01:46:22;;;;;;;277.23;30.38;;;7.70;99.90;;;;;;5025272;28;20803;-55
2022/11/29 01:48:48;;;;;;;264.00;30.05;;;8.20;99.90;;;;;;5026346;28;20077;-55
2022/11/29 01:51:14;;;;;;;233.18;29.55;;;7.40;99.90;;;;;;5026052;28;20056;-55
2022/11/29 01:53:40;;;;;;;259.90;28.88;;;7.70;99.90;;;;;;5024754;28;20054;-55
2022/11/29 01:56:06;;;;;;;269.73;29.27;;;7.70;99.90;;;;;;5025780;28;20049;-55
2022/11/29 01:58:34;;;;;;;288.38;30.65;;;7.70;99.90;;;;;;5026065;28;20127;-54
2022/11/29 02:01:00;;;;;;;254.07;29.17;;;7.50;99.90;;;;;;5025881;28;20471;-55
2022/11/29 02:03:26;;;;;;;261.52;30.73;;;7.70;99.90;;;;;;5026303;28;20057;-54
2022/11/29 02:05:53;;;;;;;199.57;27.95;;;8.50;99.90;;;;;;5024900;28;20148;-55
2022/11/29 02:08:32;;;;;;;247.65;29.60;;;7.70;99.90;;;;;;5026426;28;20056;-54
2022/11/29 02:10:57;;;;;;;239.07;29.92;;;7.70;99.90;;;;;;5030213;28;20045;-54
2022/11/29 02:13:23;;;;;;;204.25;27.33;;;7.70;99.90;;;;;;5029912;28;20052;-54
2022/11/29 02:16:01;;;;;;;221.73;28.70;;;7.70;99.90;;;;;;5029586;28;20421;-55
2022/11/29 02:19:01;;;;;;;319.13;31.70;;;8.20;99.90;;;;;;5029420;28;20061;-55
2022/11/29 02:21:32;;;;;;;317.40;31.98;;;7.70;99.90;;;;;;5029761;28;20045;-54
2022/11/29 02:24:28;;;;;;;293.33;32.58;;;7.90;99.90;;;;;;5029140;28;20546;-54
2022/11/29 02:27:49;;;;;;;299.25;34.05;;;7.70;99.90;;;;;;5029453;28;20038;-55
2022/11/29 02:30:51;;;;;;;299.70;32.75;;;7.70;99.90;;;;;;5004448;28;20061;-54
2022/11/29 02:33:43;;;;;;;327.10;32.90;;;7.70;99.90;;;;;;5006737;28;20084;-55
2022/11/29 02:36:27;;;;;;;309.88;33.67;;;7.70;99.90;;;;;;5029051;28;20045;-54
2022/11/29 02:39:17;;;;;;;252.70;28.70;;;7.70;99.90;;;;;;5029197;28;20038;-55
2022/11/29 02:42:17;;;;;;;323.80;33.83;;;7.70;99.90;;;;;;5029330;28;20041;-54
2022/11/29 02:45:01;;;;;;;225.70;28.38;;;7.70;99.90;;;;;;5028138;28;20049;-54
2022/11/29 02:48:09;;;;;;;234.55;28.08;;;7.60;99.90;;;;;;5029198;28;20514;-55
2022/11/29 02:50:56;;;;;;;231.88;29.70;;;7.70;99.90;;;;;;5019513;28;20151;-55
2022/11/29 02:53:39;;;;;;;248.45;29.73;;;7.60;99.90;;;;;;5028685;28;20056;-55
2022/11/29 02:56:20;;;;;;;292.33;31.10;;;7.60;99.90;;;;;;5028459;28;20747;-55
2022/11/29 02:59:19;;;;;;;220.18;27.40;;;7.60;99.90;;;;;;5027450;28;20090;-55
2022/11/29 03:01:54;;;;;;;222.93;26.63;;;7.60;99.90;;;;;;5028453;28;20042;-55
2022/11/29 03:04:52;;;;;;;329.38;32.63;;;7.60;99.90;;;;;;5028295;28;20107;-55
2022/11/29 03:07:59;;;;;;;258.73;29.42;;;7.60;99.90;;;;;;4994077;28;20064;-55
2022/11/29 03:10:42;;;;;;;256.75;29.05;;;7.60;99.90;;;;;;4986232;28;20512;-55
2022/11/29 03:13:21;;;;;;;322.13;32.88;;;7.60;99.90;;;;;;5026526;28;20514;-54
2022/11/29 03:16:16;;;;;;;232.95;27.50;;;7.60;99.90;;;;;;5028649;28;20067;-53
2022/11/29 03:18:55;;;;;;;220.50;26.90;;;7.40;99.90;;;;;;5027999;28;20071;-55
2022/11/29 03:21:37;;;;;;;225.65;27.73;;;7.50;99.90;;;;;;5026517;28;20483;-55
2022/11/29 03:24:07;;;;;;;;;;;7.60;99.90;;;;;;5027538;28;20041;-55
2022/11/29 03:26:41;;;;;;;203.80;26.58;;;7.50;99.90;;;;;;5028264;28;19999;-53
2022/11/29 03:29:17;;;;;;;277.10;30.88;;;7.70;99.90;;;;;;5028419;28;20048;-53
2022/11/29 03:32:10;;;;;;;213.18;27.70;;;7.50;99.90;;;;;;5027385;28;20064;-54
2022/11/29 03:34:54;;;;;;;;;;;7.50;99.90;;;;;;5022963;28;20053;-54
2022/11/29 03:37:55;;;;;;;252.10;30.17;;;7.60;99.90;;;;;;5028068;28;20020;-55
2022/11/29 03:40:30;;;;;;;195.85;27.95;;;7.50;99.90;;;;;;5026501;28;20136;-55
2022/11/29 03:43:03;;;;;;;206.55;28.10;;;7.50;99.90;;;;;;5027874;28;20100;-55
2022/11/29 03:45:52;;;;;;;223.55;30.52;;;7.20;99.90;;;;;;5027761;28;20041;-55
2022/11/29 03:48:28;;;;;;;342.80;35.28;;;7.50;99.90;;;;;;5027327;28;20470;-55
2022/11/29 03:51:17;;;;;;;213.90;27.67;;;7.50;99.90;;;;;;5027995;28;20112;-55
2022/11/29 03:53:49;;;;;;;186.02;27.50;;;7.50;99.90;;;;;;5026253;28;20061;-55
2022/11/29 03:56:41;;;;;;;159.18;25.80;;;8.40;99.90;;;;;;5027605;28;20076;-55
2022/11/29 03:59:13;;;;;;;220.43;27.77;;;7.50;99.90;;;;;;5023718;28;20069;-54
2022/11/29 04:01:57;;;;;;;;;;;7.50;99.90;;;;;;5028441;28;20071;-53
2022/11/29 04:05:07;;;;;;;228.35;26.80;;;7.50;99.90;;;;;;5026086;28;19929;-55
2022/11/29 04:07:59;;;;;;;229.88;28.30;;;7.50;99.90;;;;;;5027533;28;20052;-54
2022/11/29 04:10:44;;;;;;;;;;;7.50;99.90;;;;;;5028081;28;20045;-55
2022/11/29 04:13:55;;;;;;;154.63;23.65;;;7.40;99.90;;;;;;5027659;28;19928;-55
2022/11/29 04:16:39;;;;;;;156.95;24.73;;;7.40;99.90;;;;;;5027676;28;20081;-55
2022/11/29 04:19:24;;;;;;;237.25;29.55;;;7.40;99.90;;;;;;5027100;28;20069;-55
2022/11/29 04:22:08;;;;;;;216.85;27.83;;;7.40;99.90;;;;;;5025868;28;20056;-54
2022/11/29 04:24:54;;;;;;;237.05;31.60;;;7.40;99.90;;;;;;5026884;28;20091;-54
2022/11/29 04:27:23;;;;;;;203.15;30.60;;;7.40;99.90;;;;;;5027045;28;20660;-55
2022/11/29 04:30:13;;;;;;;297.33;31.15;;;7.40;99.90;;;;;;5026880;28;20046;-55
2022/11/29 04:32:56;;;;;;;290.38;32.35;;;7.40;99.90;;;;;;5025990;28;20045;-55
2022/11/29 04:35:50;;;;;;;284.40;31.70;;;7.40;99.90;;;;;;5026614;28;20045;-55
2022/11/29 04:38:22;;;;;;;246.60;28.45;;;8.30;99.90;;;;;;5026617;28;20033;-53
2022/11/29 04:41:13;;;;;;;274.75;31.15;;;7.40;99.90;;;;;;5025736;28;20068;-55
2022/11/29 04:43:51;;;;;;;198.13;27.20;;;7.40;99.90;;;;;;5025272;28;20045;-54
2022/11/29 04:46:58;;;;;;;176.38;27.38;;;7.40;99.90;;;;;;5025676;28;20139;-55
2022/11/29 04:49:55;;;;;;;196.50;27.15;;;7.30;99.90;;;;;;5026863;28;20037;-55
2022/11/29 04:52:51;;;;;;;193.65;28.15;;;7.30;99.90;;;;;;5026203;28;20046;-54
2022/11/29 04:55:53;;;;;;;191.38;27.63;;;7.30;99.90;;;;;;5025837;28;20069;-55
2022/11/29 04:59:00;;;;;;;197.73;28.23;;;7.30;99.90;;;;;;5026518;28;20103;-54
2022/11/29 05:01:44;;;;;;;188.57;25.55;;;7.30;99.90;;;;;;4988537;28;20055;-55
2022/11/29 05:04:16;;;;;;;203.27;29.08;;;7.30;99.90;;;;;;5024861;28;20111;-54
2022/11/29 05:06:54;;;;;;;229.50;29.27;;;7.30;99.90;;;;;;5024851;28;20073;-55
2022/11/29 05:09:54;;;;;;;238.73;28.95;;;7.40;99.90;;;;;;5025044;28;20049;-55
2022/11/29 05:12:34;;;;;;;151.25;27.05;;;7.20;99.90;;;;;;5021236;28;20049;-54
2022/11/29 05:15:29;;;;;;;164.48;24.75;;;7.20;99.90;;;;;;5026332;28;20064;-55
2022/11/29 05:18:04;;;;;;;152.85;24.70;;;7.20;99.90;;;;;;5021484;28;20064;-54
2022/11/29 05:20:55;;;;;;;145.85;23.73;;;7.20;99.90;;;;;;5024537;28;20128;-54
2022/11/29 05:24:10;;;;;;;151.85;24.35;;;7.20;99.90;;;;;;5006417;28;20085;-55
2022/11/29 05:26:54;;;;;;;142.68;23.85;;;7.20;99.90;;;;;;5026138;28;20146;-54
2022/11/29 05:29:56;;;;;;;162.00;26.55;;;8.00;99.90;;;;;;5024933;28;20360;-54
2022/11/29 05:32:29;;;;;;;146.45;24.40;;;7.10;99.90;;;;;;5020411;28;20049;-55
2022/11/29 05:35:07;;;;;;;197.25;27.55;;;7.80;99.90;;;;;;5026136;28;20132;-55
2022/11/29 05:37:53;;;;;;;166.35;26.08;;;7.10;99.90;;;;;;5008055;28;20050;-54
2022/11/29 05:40:43;;;;;;;205.18;26.45;;;7.10;99.90;;;;;;5026159;28;20033;-55
2022/11/29 05:44:00;;;;;;;169.10;26.48;;;7.10;99.90;;;;;;5027391;28;20201;-55
2022/11/29 05:46:47;;;;;;;200.82;25.67;;;7.10;99.90;;;;;;5012204;28;20052;-55
2022/11/29 05:49:30;;;;;;;296.20;32.72;;;7.10;99.90;;;;;;5029968;28;20067;-55
2022/11/29 05:52:02;;;;;;;253.27;30.23;;;7.00;99.90;;;;;;5028954;28;20041;-55
2022/11/29 05:54:43;;;;;;;225.95;28.75;;;7.10;99.90;;;;;;5030021;28;20157;-55
2022/11/29 05:57:53;;;;;;;234.32;29.17;;;7.00;99.90;;;;;;5028848;28;20499;-55
2022/11/29 06:00:19;;;;;;;239.18;28.20;;;7.10;99.90;;;;;;5019399;28;20088;-55
2022/11/29 06:03:05;;;;;;;318.30;31.48;;;7.00;99.90;;;;;;5044770;28;20111;-55
2022/11/29 06:05:48;;;;;;;233.30;28.65;;;7.10;99.90;;;;;;5029770;28;20132;-55
2022/11/29 06:08:37;;;;;;;254.25;31.27;;;7.10;99.90;;;;;;5028781;28;20045;-55
2022/11/29 06:11:05;;;;;;;198.98;26.60;;;7.00;99.90;;;;;;5024011;28;20041;-54
2022/11/29 06:14:04;;;;;;;203.27;27.90;;;7.10;99.90;;;;;;5028390;28;20053;-55
2022/11/29 06:16:44;;;;;;;148.30;25.15;;;7.00;99.90;;;;;;5029585;28;20824;-55
2022/11/29 06:19:45;;;;;;;156.40;24.95;;;7.00;99.90;;;;;;5029456;28;20060;-55
2022/11/29 06:22:25;;;;;;;166.02;24.73;;;7.00;99.90;;;;;;4995467;28;20057;-55
2022/11/29 06:24:55;;;;;;;158.23;24.80;;;7.00;99.90;;;;;;5028100;28;20495;-55
2022/11/29 06:27:34;;;;;;;161.82;25.10;;;7.00;99.90;;;;;;5028018;28;20048;-55
2022/11/29 06:30:10;;;;;;;171.18;26.25;;;7.00;99.90;;;;;;5027658;28;20053;-54
2022/11/29 06:32:53;;;;;;;143.18;24.80;;;7.00;99.90;;;;;;5028998;28;20041;-55
2022/11/29 06:36:06;;;;;;;209.93;28.20;;;7.00;99.90;;;;;;5029211;28;20064;-55
2022/11/29 06:38:32;;;;;;;183.50;27.42;;;7.00;99.90;;;;;;5029292;28;20077;-55
2022/11/29 06:40:58;;;;;;;135.45;23.90;;;6.90;99.90;;;;;;5028599;28;20830;-55
2022/11/29 06:43:25;;;;;;;139.23;24.73;;;6.90;99.90;;;;;;5027300;28;20050;-55
2022/11/29 06:46:08;;;;;;;128.95;23.30;;;6.90;99.90;;;;;;5028498;28;20784;-55
2022/11/29 06:48:44;;;;;;;169.80;25.08;;;6.90;99.90;;;;;;5029360;28;20068;-54
2022/11/29 06:51:30;;;;;;;144.55;24.30;;;6.90;99.90;;;;;;5029240;28;20045;-55
2022/11/29 06:54:01;;;;;;;152.77;25.90;;;6.90;99.90;;;;;;5028325;28;20048;-55
2022/11/29 06:56:30;;;;;;;123.83;23.63;;;6.90;99.90;;;;;;5027416;28;20060;-55
2022/11/29 06:59:01;;;;;;;138.60;24.20;;;7.20;99.90;;;;;;5027070;28;20728;-55
2022/11/29 07:01:50;;;;;;;130.25;24.27;;;7.30;99.90;;;;;;5027294;28;20746;-54
2022/11/29 07:04:38;;;;;;;139.90;23.67;;;6.90;99.90;;;;;;5026987;28;20049;-55
2022/11/29 07:07:12;;;;;;;157.55;24.67;;;6.90;99.90;;;;;;5028427;28;20047;-55
2022/11/29 07:09:40;;;;;;;126.75;24.85;;;6.90;99.90;;;;;;5027319;28;20056;-54
2022/11/29 07:12:06;;;;;;;116.78;22.10;;;6.80;99.90;;;;;;5027002;28;20045;-55
2022/11/29 07:14:32;;;;;;;145.57;24.73;;;6.80;99.90;;;;;;5027032;28;20050;-54
2022/11/29 07:17:38;;;;;;;127.00;24.02;;;6.80;99.90;;;;;;5026831;28;20395;-55
2022/11/29 07:20:37;;;;;;;180.73;27.33;;;6.80;99.90;;;;;;5027332;28;20550;-55
2022/11/29 07:23:16;;;;;;;125.85;23.92;;;6.80;99.90;;;;;;5027936;28;20053;-54
2022/11/29 07:26:13;;;;;;;122.55;23.48;;;6.80;99.90;;;;;;5028279;28;20570;-54
2022/11/29 07:29:01;;;;;;;134.80;22.77;;;6.80;99.90;;;;;;5028040;28;20047;-54
2022/11/29 07:31:40;;;;;;;112.80;22.80;;;4.80;99.90;;;;;;5028040;28;20080;-54
2022/11/29 07:34:36;;;;;;;130.93;23.77;;;6.80;99.90;;;;;;5026933;28;20073;-55
2022/11/29 07:37:05;;;;;;;130.27;24.25;;;6.70;99.90;;;;;;5027814;28;20045;-54
2022/11/29 07:39:45;;;;;;;119.18;23.73;;;6.70;99.90;;;;;;5027971;28;20041;-54
2022/11/29 07:42:34;;;;;;;146.45;23.58;;;6.70;99.90;;;;;;5027532;28;20044;-55
2022/11/29 07:45:03;;;;;;;129.05;22.48;;;6.70;99.90;;;;;;5026510;28;20055;-55
2022/11/29 07:47:29;;;;;;;102.07;21.42;;;7.10;99.90;;;;;;5026785;28;20111;-54
2022/11/29 07:49:54;;;;;;;124.35;22.15;;;6.70;99.90;;;;;;5028590;28;20049;-55
2022/11/29 07:52:20;;;;;;;125.75;22.35;;;6.70;99.90;;;;;;5028282;28;20048;-54
2022/11/29 07:54:45;;;;;;;110.55;22.38;;;6.70;99.90;;;;;;5027749;28;20033;-55
2022/11/29 07:57:11;;;;;;;131.00;22.83;;;5.20;99.90;;;;;;5027841;28;20048;-55
2022/11/29 07:59:37;;;;;;;102.20;21.13;;;6.70;99.90;;;;;;5010195;28;20121;-54
2022/11/29 08:02:02;;;;;;;106.22;21.55;;;6.40;99.90;;;;;;5027858;28;20073;-55
2022/11/29 08:04:28;;;;;;;90.95;21.58;;;7.60;99.90;;;;;;5026147;28;20128;-55
2022/11/29 08:06:58;;;;;;;109.50;23.20;;;6.80;99.90;;;;;;5027145;28;20045;-55
2022/11/29 08:09:23;;;;;;;114.82;23.48;;;6.80;99.90;;;;;;5026584;28;20053;-55
2022/11/29 08:11:49;;;;;;;114.50;20.85;;;6.80;99.90;;;;;;5026179;28;20045;-54
2022/11/29 08:14:14;;;;;;;109.38;24.20;;;6.80;99.90;;;;;;5027443;28;20148;-54
2022/11/29 08:16:40;;;;;;;114.32;22.95;;;6.70;99.90;;;;;;5025859;28;20140;-54
2022/11/29 08:19:06;;;;;;;107.00;22.05;;;6.90;99.90;;;;;;5026784;28;20107;-54
2022/11/29 08:21:31;;;;;;;112.55;22.45;;;6.90;99.90;;;;;;5025815;28;20119;-54
2022/11/29 08:23:57;;;;;;;101.15;21.55;;;7.60;99.90;;;;;;5027040;28;20156;-55
2022/11/29 08:26:23;;;;;;;142.05;23.98;;;6.90;99.90;;;;;;5027210;28;20738;-55
2022/11/29 08:28:51;;;;;;;105.85;23.27;;;7.00;99.90;;;;;;5026349;28;20495;-55
2022/11/29 08:31:17;;;;;;;97.25;22.25;;;7.00;99.90;;;;;;5027038;28;20072;-54
2022/11/29 08:33:43;;;;;;;158.15;25.83;;;7.00;99.90;;;;;;5026776;28;20045;-54
2022/11/29 08:36:12;;;;;;;101.05;21.77;;;7.00;99.90;;;;;;5026452;28;20051;-55
2022/11/29 08:38:38;;;;;;;91.95;21.13;;;7.00;99.90;;;;;;5026712;28;20763;-54
2022/11/29 08:41:05;;;;;;;106.35;22.33;;;7.10;99.90;;;;;;5026583;28;20091;-54
2022/11/29 08:43:31;;;;;;;101.53;22.33;;;7.10;99.90;;;;;;5026654;28;20793;-55
2022/11/29 08:45:57;;;;;;;81.68;20.42;;;7.10;99.90;;;;;;5026834;28;20029;-55
2022/11/29 08:48:23;;;;;;;84.07;19.15;;;7.20;99.90;;;;;;5025433;28;20776;-55
2022/11/29 08:50:51;;;;;;;83.28;19.75;;;6.80;99.90;;;;;;5025293;28;20135;-55
2022/11/29 08:56:02;;;;;;;71.95;17.98;;;7.00;99.90;;;;;;5026155;28;20057;-55
2022/11/29 08:58:28;;;;;;;77.18;19.25;;;7.30;99.90;;;;;;5008246;28;20783;-53
2022/11/29 09:00:54;;;;;;;77.05;19.25;;;8.00;99.90;;;;;;5026372;28;20047;-53
2022/11/29 09:06:14;;;;;;;78.85;19.80;;;7.30;99.90;;;;;;5028561;28;20079;-64
2022/11/29 09:08:42;;;;;;;80.00;19.75;;;7.30;99.90;;;;;;5029389;28;20045;-67
2022/11/29 09:11:15;;;;;;;76.03;22.15;;;7.40;99.90;;;;;;5028587;28;20103;-63
2022/11/29 09:13:46;;;;;;;75.60;18.38;;;7.20;99.90;;;;;;5028169;28;20090;-52
2022/11/29 09:16:14;;;;;;;74.40;18.80;;;7.40;99.90;;;;;;5026381;28;20467;-54
2022/11/29 09:18:40;;;;;;;87.85;18.98;;;7.50;99.90;;;;;;5025676;28;20053;-55
2022/11/29 09:21:08;;;;;;;66.20;18.30;;;7.50;99.90;;;;;;5024515;28;20053;-54
2022/11/29 09:23:35;;;;;;;75.07;19.52;;;8.50;99.90;;;;;;5026061;28;20510;-55
2022/11/29 09:26:01;;;;;;;71.25;19.48;;;7.50;99.90;;;;;;5026182;28;20448;-54
2022/11/29 09:28:27;;;;;;;59.03;17.67;;;7.60;99.90;;;;;;5024485;28;20047;-54
2022/11/29 09:30:53;;;;;;;80.93;18.98;;;7.60;99.90;;;;;;5026424;28;20188;-54
2022/11/29 09:33:19;;;;;;;63.17;18.25;;;8.30;99.90;;;;;;5024997;28;20144;-55
2022/11/29 09:35:44;;;;;;;53.65;16.50;;;7.70;99.90;;;;;;5026807;28;20041;-54
2022/11/29 09:38:12;;;;;;;58.70;16.27;;;7.60;99.90;;;;;;5025412;28;20054;-62
2022/11/29 09:40:55;;;;;;;74.95;20.25;;;7.80;99.90;;;;;;5025337;28;20056;-62
2022/11/29 09:44:01;;;;;;;60.90;16.42;;;7.60;99.90;;;;;;5026109;28;20394;-62
2022/11/29 09:46:48;;;;;;;60.47;16.95;;;7.90;99.90;;;;;;5025056;28;20083;-64
2022/11/29 09:49:29;;;;;;;60.35;16.48;;;7.90;99.90;;;;;;5026112;28;20044;-64
2022/11/29 09:52:13;;;;;;;52.10;15.85;;;7.80;99.90;;;;;;5026730;28;20041;-64
2022/11/29 09:55:09;;;;;;;76.93;19.05;;;8.00;99.90;;;;;;5026740;28;20110;-51
2022/11/29 09:57:37;;;;;;;67.80;17.42;;;7.90;99.90;;;;;;5016031;28;20065;-54
2022/11/29 10:00:13;;;;;;;63.22;17.67;;;7.90;99.90;;;;;;5022056;28;20037;-55
2022/11/29 10:02:46;;;;;;;56.30;16.65;;;8.00;99.90;;;;;;5024278;28;20068;-62
2022/11/29 10:05:22;;;;;;;59.22;16.35;;;8.00;99.90;;;;;;5023146;28;20570;-55
2022/11/29 10:07:59;;;;;;;50.35;15.25;;;8.00;99.90;;;;;;5023298;28;20095;-56
2022/11/29 10:10:39;;;;;;;66.15;17.63;;;8.10;99.90;;;;;;5022149;28;20054;-54
2022/11/29 10:13:27;;;;;;;59.22;16.58;;;8.10;99.90;;;;;;5024494;28;20060;-54
2022/11/29 10:16:00;;;;;;;50.38;15.63;;;9.10;99.90;;;;;;5024847;28;20041;-49
2022/11/29 10:18:34;;;;;;;45.78;15.75;;;9.10;99.90;;;;;;5024639;28;20064;-45
2022/11/29 10:21:09;;;;;;;68.97;17.95;;;8.90;99.90;;;;;;5023746;28;20115;-51
2022/11/29 10:23:45;;;;;;;50.63;15.02;;;8.30;99.90;;;;;;5025081;28;20090;-51
2022/11/29 10:26:11;;;;;;;78.60;18.35;;;8.30;99.90;;;;;;5025215;28;20769;-46
2022/11/29 10:28:43;;;;;;;54.38;16.02;;;8.30;99.90;;;;;;5025496;28;20041;-44
2022/11/29 10:31:33;;;;;;;54.15;16.77;;;8.30;99.90;;;;;;5028604;28;20041;-45
2022/11/29 10:34:01;;;;;;;51.63;14.93;;;9.40;99.90;;;;;;5008231;28;20091;-45
2022/11/29 10:36:39;;;;;;;53.53;16.17;;;8.30;99.90;;;;;;5025712;28;20132;-44
2022/11/29 10:39:31;;;;;;;51.97;14.77;;;8.30;99.90;;;;;;5025427;28;20049;-44
2022/11/29 10:42:01;;;;;;;50.95;15.35;;;8.30;99.90;;;;;;5020259;28;20514;-61
2022/11/29 10:44:27;;;;;;;49.38;14.52;;;8.20;99.90;;;;;;5025628;28;20498;-58
2022/11/29 10:46:54;;;;;;;49.47;14.90;;;9.40;99.90;;;;;;5026090;28;20518;-57
2022/11/29 10:49:25;;;;;;;37.03;13.15;;;8.30;99.90;;;;;;5025940;28;20498;-63
2022/11/29 10:51:50;;;;;;;42.88;14.07;;;8.30;99.90;;;;;;5025605;28;20041;-59
2022/11/29 10:54:46;;;;;;;39.38;14.13;;;8.30;99.90;;;;;;5026059;28;20057;-59
2022/11/29 10:57:14;;;;;;;48.88;14.88;;;8.30;99.90;;;;;;5012458;28;20716;-55
2022/11/29 10:59:40;;;;;;;40.20;14.98;;;8.30;99.90;;;;;;5024479;28;20060;-56
2022/11/29 11:02:19;;;;;;;61.00;16.38;;;8.30;99.90;;;;;;5026403;28;20049;-56
2022/11/29 11:04:46;;;;;;;51.47;14.52;;;8.30;99.90;;;;;;5026287;28;20052;-60
2022/11/29 11:07:34;;;;;;;44.65;14.40;;;8.50;99.90;;;;;;5025755;28;20075;-61
2022/11/29 11:10:03;;;;;;;50.15;14.90;;;8.30;99.90;;;;;;5025805;28;20133;-54
2022/11/29 11:12:35;;;;;;;54.22;17.13;;;8.30;99.90;;;;;;5026241;28;20049;-55
2022/11/29 11:15:15;;;;;;;49.50;15.00;;;8.40;99.90;;;;;;5026007;28;20122;-59
2022/11/29 11:17:56;;;;;;;62.05;16.23;;;8.40;99.90;;;;;;5024009;28;20047;-58
2022/11/29 11:20:23;;;;;;;47.15;14.65;;;8.40;99.90;;;;;;5024199;28;20115;-56
2022/11/29 11:23:29;;;;;;;44.85;14.70;;;8.50;99.90;;;;;;5024057;28;20041;-56
2022/11/29 11:26:01;;;;;;;52.42;15.60;;;8.50;99.90;;;;;;5024074;28;20571;-61
2022/11/29 11:28:42;;;;;;;62.63;17.73;;;8.50;99.90;;;;;;5025548;28;20126;-58
2022/11/29 11:31:10;;;;;;;57.05;16.60;;;8.50;99.90;;;;;;5025764;28;20657;-57
2022/11/29 11:33:46;;;;;;;48.28;14.82;;;9.60;99.90;;;;;;5014056;28;20056;-55
2022/11/29 11:36:12;;;;;;;49.00;15.38;;;8.60;99.90;;;;;;5024219;28;20734;-57
2022/11/29 11:38:49;;;;;;;46.78;14.73;;;8.60;99.90;;;;;;5024738;28;20045;-58
2022/11/29 11:42:35;;;;;;;51.10;15.93;;;9.10;99.90;;;;;;5024978;28;20111;-61
2022/11/29 11:44:44;;;;;;;43.25;13.95;;;8.70;99.90;;;;;;5023693;28;20670;-56
2022/11/29 11:47:34;;;;;;;66.63;17.50;;;8.70;99.90;;;;;;5024975;28;20487;-57
2022/11/29 11:50:02;;;;;;;48.58;16.38;;;8.80;99.90;;;;;;5025362;28;20049;-57
2022/11/29 11:52:39;;;;;;;59.33;17.33;;;8.80;99.90;;;;;;5023769;28;20045;-57
2022/11/29 11:55:24;;;;;;;57.65;16.55;;;8.90;99.90;;;;;;5024800;28;20682;-56
2022/11/29 11:58:12;;;;;;;48.22;16.33;;;8.90;99.90;;;;;;5023568;28;20136;-56
2022/11/29 12:00:44;;;;;;;53.55;16.63;;;8.90;99.90;;;;;;5024831;28;20044;-57
2022/11/29 12:03:43;;;;;;;67.85;18.75;;;9.00;99.90;;;;;;5024648;28;20059;-58
2022/11/29 12:06:19;;;;;;;49.72;16.85;;;9.30;99.90;;;;;;5021115;28;20088;-55
2022/11/29 12:08:47;;;;;;;50.03;16.92;;;9.10;99.90;;;;;;5024590;28;20072;-57
2022/11/29 12:11:16;;;;;;;49.70;15.75;;;8.90;99.90;;;;;;5024621;28;20076;-50
2022/11/29 12:13:47;;;;;;;43.97;15.85;;;9.20;99.90;;;;;;5024532;28;20111;-59
2022/11/29 12:16:30;;;;;;;56.40;17.90;;;9.20;99.90;;;;;;5023100;28;20045;-57
2022/11/29 12:19:20;;;;;;;42.28;14.68;;;9.20;99.90;;;;;;5024298;28;20071;-56
2022/11/29 12:21:51;;;;;;;60.75;17.52;;;9.20;99.90;;;;;;5024387;28;20123;-57
2022/11/29 12:24:33;;;;;;;57.50;17.30;;;10.00;99.90;;;;;;5024724;28;20049;-57
2022/11/29 12:27:03;;;;;;;51.97;17.20;;;9.10;99.90;;;;;;5024706;28;20037;-56
2022/11/29 12:29:31;;;;;;;49.08;16.70;;;9.10;99.90;;;;;;5024629;28;20050;-56
2022/11/29 12:32:42;;;;;;;58.28;17.25;;;10.00;99.90;;;;;;5023345;28;20041;-54
2022/11/29 12:35:27;;;;;;;47.20;18.17;;;9.10;99.90;;;;;;4989384;28;20045;-60
2022/11/29 12:38:04;;;;;;;53.78;19.00;;;9.10;99.90;;;;;;5023070;28;20067;-57
2022/11/29 12:40:38;;;;;;;36.67;18.48;;;9.10;99.90;;;;;;5024910;28;20042;-61
2022/11/29 12:43:12;;;;;;;42.00;18.00;;;9.10;99.90;;;;;;5023166;28;20135;-58
2022/11/29 12:46:02;;;;;;;45.25;18.48;;;9.10;99.90;;;;;;5023246;28;20098;-61
2022/11/29 12:48:47;;;;;;;50.72;20.70;;;9.10;99.90;;;;;;5023248;28;20054;-59
2022/11/29 12:51:55;;;;;;;45.88;19.60;;;9.10;99.90;;;;;;5024492;28;20076;-61
2022/11/29 12:54:40;;;;;;;33.65;16.60;;;9.10;99.90;;;;;;5022737;28;20045;-55
2022/11/29 12:57:18;;;;;;;38.35;18.88;;;9.10;99.90;;;;;;5026148;28;20052;-57
2022/11/29 13:00:05;;;;;;;36.85;18.30;;;9.10;99.90;;;;;;5025039;28;20049;-57
2022/11/29 13:03:05;;;;;;;37.03;17.10;;;9.20;99.90;;;;;;5023606;28;20045;-57
2022/11/29 13:05:45;;;;;;;39.88;17.90;;;9.10;99.90;;;;;;5025932;28;20045;-58
2022/11/29 13:08:50;;;;;;;43.80;18.00;;;9.80;99.90;;;;;;5027171;28;20068;-58
2022/11/29 13:11:36;;;;;;;48.17;17.75;;;9.10;99.90;;;;;;5025011;28;20049;-55
2022/11/29 13:14:41;;;;;;;37.95;18.55;;;9.50;99.90;;;;;;5024221;28;20059;-56
2022/11/29 13:17:57;;;;;;;38.10;18.08;;;9.70;99.90;;;;;;5017634;28;20061;-54
2022/11/29 13:20:47;;;;;;;26.33;14.05;;;9.00;99.90;;;;;;5017418;28;20136;-56
2022/11/29 13:23:22;;;;;;;47.08;18.67;;;9.00;99.90;;;;;;5023177;28;20119;-54
2022/11/29 13:25:51;;;;;;;35.13;17.08;;;9.20;99.90;;;;;;5022419;28;20870;-56
2022/11/29 13:28:22;;;;;;;42.28;19.08;;;8.80;99.90;;;;;;5022745;28;20053;-55
2022/11/29 13:30:49;;;;;;;34.35;17.98;;;9.40;99.90;;;;;;5024013;28;20041;-56